Time;durP1;ratioP1;P1;durP2;ratioP2;P2;SDS_P1;SDS_P2;PMS_P1;PMS_P2;Temp;Humidity;BMP_temperature;BMP_pressure;BME280_temperature;BME280_humidity;BME280_pressure;Samples;Min_cycle;Max_cycle;Signal;HPM_P1;HPM_P2
2023/12/15 00:04:09;;;;;;;;;;;;;;;3.38;100.00;102252.56;5009867;28;19928;-83
2023/12/15 00:09:49;;;;;;;;;;;;;;;3.54;100.00;102245.13;4994181;28;19975;-82
2023/12/15 00:14:54;;;;;;;;;;;;;;;3.58;100.00;102245.72;5011674;28;19972;-82
2023/12/15 00:17:19;;;;;;;;;;;;;;;3.59;100.00;102255.41;5014122;28;19932;-83
2023/12/15 00:19:47;;;;;;;;;;;;;;;3.60;100.00;102268.63;5014079;28;20284;-82
2023/12/15 00:22:15;;;;;;;;;;;;;;;3.66;100.00;102272.66;5013396;28;20303;-82
2023/12/15 00:24:40;;;;;;;;;;;;;;;3.58;100.00;102283.88;5002971;28;19925;-82
2023/12/15 00:35:46;;;;;;;;;;;;;;;3.74;100.00;102302.19;4993507;28;19991;-83
2023/12/15 00:46:55;;;;;;;;;;;;;;;3.75;100.00;102317.22;6128742;22;19908;-83
2023/12/15 00:55:28;;;;;;;;;;;;;;;3.72;100.00;102317.44;4992921;28;19922;-83
2023/12/15 01:06:53;;;;;;;;;;;;;;;3.73;100.00;102308.47;5194139;23;19933;-84
2023/12/15 01:15:47;;;;;;;;;;;;;;;3.91;100.00;102318.72;4996681;28;19976;-83
2023/12/15 01:43:15;;;;;;;;;;;;;;;3.88;100.00;102353.59;5008765;28;19928;-84
2023/12/15 02:07:13;;;;;;;;;;;;;;;3.99;100.00;102387.41;4933603;29;20457;-82
2023/12/15 02:09:38;;;;;;;;;;;;;;;3.98;100.00;102383.91;4935382;29;19922;-82
2023/12/15 02:12:04;;;;;;;;;;;;;;;4.02;100.00;102385.38;4934344;29;20046;-82
2023/12/15 02:14:29;;;;;;;;;;;;;;;4.06;100.00;102378.00;4930169;29;19923;-83
2023/12/15 02:16:57;;;;;;;;;;;;;;;4.05;100.00;102376.28;4937361;29;19982;-83
2023/12/15 02:19:22;;;;;;;;;;;;;;;4.07;100.00;102385.88;4918465;29;19982;-83
2023/12/15 02:28:17;;;;;;;;;;;;;;;4.07;100.00;102379.69;4935109;29;20010;-83
2023/12/15 03:02:30;;;;;;;;;;;;;;;4.08;100.00;102430.19;4997715;28;20764;-82
2023/12/15 03:13:37;;;;;;;;;;;;;;;4.18;100.00;102435.69;5638972;23;19926;-83
2023/12/15 03:19:05;;;;;;;;;;;;;;;4.24;100.00;102445.03;4992366;28;19929;-83
2023/12/15 03:22:13;;;;;;;;;;;;;;;4.25;100.00;102446.75;5002962;28;20296;-82
2023/12/15 03:25:12;;;;;;;;;;;;;;;4.06;100.00;102458.78;5006447;28;19926;-84
2023/12/15 03:27:37;;;;;;;;;;;;;;;3.95;100.00;102466.72;5008376;28;19929;-80
2023/12/15 03:30:28;;;;;;;;;;;;;;;3.91;100.00;102463.44;5012017;28;19987;-83
2023/12/15 03:35:46;;;;;;;;;;;;;;;4.02;100.00;102472.44;5109624;23;19937;-80
2023/12/15 03:38:40;;;;;;;;;;;;;;;4.11;100.00;102474.44;4990770;28;19952;-83
2023/12/15 03:41:12;;;;;;;;;;;;;;;4.19;100.00;102474.72;4980496;28;19958;-81
2023/12/15 03:44:10;;;;;;;;;;;;;;;4.17;100.00;102475.81;5001257;28;19922;-81
2023/12/15 03:46:44;;;;;;;;;;;;;;;4.19;100.00;102485.38;5007776;28;19932;-81
2023/12/15 03:49:15;;;;;;;;;;;;;;;4.10;100.00;102470.09;5000870;28;19921;-81
2023/12/15 03:51:49;;;;;;;;;;;;;;;4.28;100.00;102481.19;5004686;28;19961;-81
2023/12/15 03:54:15;;;;;;;;;;;;;;;4.36;100.00;102481.47;5002424;28;19922;-81
2023/12/15 03:56:40;;;;;;;;;;;;;;;4.23;100.00;102483.34;5004106;28;20008;-81
2023/12/15 03:59:20;;;;;;;;;;;;;;;4.27;100.00;102479.47;5010289;28;19925;-81
2023/12/15 04:01:51;;;;;;;;;;;;;;;4.23;100.00;102483.34;4998907;28;19953;-79
2023/12/15 04:04:17;;;;;;;;;;;;;;;4.28;100.00;102481.19;4987892;28;20293;-79
2023/12/15 04:06:48;;;;;;;;;;;;;;;4.35;100.00;102486.88;5004274;28;19922;-80
2023/12/15 04:09:13;;;;;;;;;;;;;;;4.23;100.00;102486.84;5006012;28;19926;-79
2023/12/15 04:11:41;;;;;;;;;;;;;;;4.35;100.00;102481.56;5006857;28;19928;-79
2023/12/15 04:14:44;;;;;;;;;;;;;;;4.25;100.00;102478.72;5007775;28;19921;-80
2023/12/15 04:17:10;;;;;;;;;;;;;;;4.34;100.00;102488.72;4999738;28;19922;-80
2023/12/15 04:22:40;;;;;;;;;;;;;;;4.22;100.00;102495.81;4995325;28;19965;-80
2023/12/15 04:25:12;;;;;;;;;;;;;;;4.27;100.00;102497.28;5004027;28;19935;-81
2023/12/15 04:27:37;;;;;;;;;;;;;;;4.24;100.00;102501.88;4994214;28;19921;-80
2023/12/15 04:30:02;;;;;;;;;;;;;;;4.23;100.00;102499.34;4996916;28;20297;-80
2023/12/15 04:32:28;;;;;;;;;;;;;;;4.20;100.00;102496.91;5003762;28;19922;-80
2023/12/15 04:34:53;;;;;;;;;;;;;;;4.39;100.00;102497.22;4993668;28;20353;-80
2023/12/15 04:37:27;;;;;;;;;;;;;;;4.28;100.00;102501.66;4995846;28;19921;-80
2023/12/15 04:40:01;;;;;;;;;;;;;;;4.25;100.00;102508.06;5005761;28;19924;-80
2023/12/15 04:42:28;;;;;;;;;;;;;;;4.22;100.00;102526.97;5000229;28;19996;-80
2023/12/15 04:45:11;;;;;;;;;;;;;;;4.23;100.00;102526.84;5004808;28;19921;-80
2023/12/15 04:47:36;;;;;;;;;;;;;;;4.29;100.00;102536.19;4994663;28;19926;-81
2023/12/15 04:50:15;;;;;;;;;;;;;;;4.27;100.00;102524.78;4996603;28;19940;-80
2023/12/15 04:53:07;;;;;;;;;;;;;;;4.29;100.00;102527.38;5004317;28;19976;-80
2023/12/15 04:55:32;;;;;;;;;;;;;;;4.24;100.00;102536.53;4997985;28;19926;-80
2023/12/15 04:58:15;;;;;;;;;;;;;;;4.26;100.00;102541.75;5001587;28;20436;-80
2023/12/15 05:00:46;;;;;;;;;;;;;;;4.28;100.00;102537.16;5007775;28;19928;-80
2023/12/15 05:03:11;;;;;;;;;;;;;;;4.31;100.00;102530.78;4999516;28;20007;-80
2023/12/15 05:05:37;;;;;;;;;;;;;;;4.36;100.00;102531.25;5002320;28;19922;-80
2023/12/15 05:08:18;;;;;;;;;;;;;;;4.40;100.00;102530.94;5004146;28;19929;-80
2023/12/15 05:10:47;;;;;;;;;;;;;;;4.32;100.00;102537.81;5001765;28;19928;-80
2023/12/15 05:13:15;;;;;;;;;;;;;;;4.30;100.00;102542.41;5009516;28;19936;-80
2023/12/15 05:15:48;;;;;;;;;;;;;;;4.36;100.00;102550.78;5011199;28;19926;-80
2023/12/15 05:18:13;;;;;;;;;;;;;;;4.42;100.00;102552.13;5015951;28;19921;-80
2023/12/15 05:20:39;;;;;;;;;;;;;;;4.44;100.00;102550.22;5008898;28;19945;-80
2023/12/15 05:23:13;;;;;;;;;;;;;;;4.47;100.00;102554.47;4997320;28;20004;-80
2023/12/15 05:25:45;;;;;;;;;;;;;;;4.43;100.00;102560.97;4995654;28;19925;-80
2023/12/15 05:28:13;;;;;;;;;;;;;;;4.37;100.00;102568.50;5011353;28;19972;-80
2023/12/15 05:31:12;;;;;;;;;;;;;;;4.38;100.00;102564.84;5011187;28;19961;-80
2023/12/15 05:33:49;;;;;;;;;;;;;;;4.54;100.00;102575.22;5004120;28;19925;-80
2023/12/15 05:39:16;;;;;;;;;;;;;;;4.42;100.00;102585.94;5212683;23;19949;-80
2023/12/15 05:41:44;;;;;;;;;;;;;;;4.42;100.00;102586.81;5004164;28;20366;-80
2023/12/15 05:44:09;;;;;;;;;;;;;;;4.57;100.00;102584.81;5000216;28;19949;-80
2023/12/15 05:46:39;;;;;;;;;;;;;;;4.50;100.00;102589.75;5006567;28;19922;-80
2023/12/15 05:49:05;;;;;;;;;;;;;;;4.50;100.00;102589.75;4997300;28;20326;-81
2023/12/15 05:51:30;;;;;;;;;;;;;;;4.52;100.00;102592.31;5007771;28;19936;-80
2023/12/15 05:53:55;;;;;;;;;;;;;;;4.52;100.00;102590.47;5002318;28;19932;-81
2023/12/15 05:56:20;;;;;;;;;;;;;;;4.53;100.00;102588.69;5002636;28;20392;-80
2023/12/15 05:58:46;;;;;;;;;;;;;;;4.49;100.00;102588.06;5005992;28;19925;-80
2023/12/15 06:01:11;;;;;;;;;;;;;;;4.54;100.00;102583.22;5001348;28;19921;-80
2023/12/15 06:03:36;;;;;;;;;;;;;;;4.55;100.00;102589.41;4997721;28;20330;-80
2023/12/15 06:06:01;;;;;;;;;;;;;;;4.61;100.00;102585.44;5006943;28;19918;-80
2023/12/15 06:08:27;;;;;;;;;;;;;;;4.61;100.00;102583.59;5004451;28;19929;-80
2023/12/15 06:10:52;;;;;;;;;;;;;;;4.57;100.00;102590.16;4998118;28;19922;-80
2023/12/15 06:13:17;;;;;;;;;;;;;;;4.58;100.00;102602.53;4999146;28;20012;-80
2023/12/15 06:15:42;;;;;;;;;;;;;;;4.57;100.00;102607.97;4999153;28;19928;-81
2023/12/15 06:18:07;;;;;;;;;;;;;;;4.58;100.00;102618.53;5015599;28;19918;-80
2023/12/15 06:20:33;;;;;;;;;;;;;;;4.58;100.00;102617.66;5006241;28;19921;-80
2023/12/15 06:23:05;;;;;;;;;;;;;;;4.64;100.00;102622.56;4995779;28;19926;-80
2023/12/15 06:25:31;;;;;;;;;;;;;;;4.62;100.00;102622.66;4998041;28;19985;-80
2023/12/15 06:27:58;;;;;;;;;;;;;;;4.66;100.00;102621.47;5006135;28;19921;-80
2023/12/15 06:30:23;;;;;;;;;;;;;;;4.68;100.00;102619.53;5012607;28;19921;-80
2023/12/15 06:32:49;;;;;;;;;;;;;;;4.65;100.00;102625.09;5015198;23;19934;-80
2023/12/15 06:41:27;;;;;;;;;;;;;;;4.84;100.00;102627.28;5008217;28;20309;-80
2023/12/15 06:43:55;;;;;;;;;;;;;;;4.77;100.00;102622.47;5305958;23;20024;-80
2023/12/15 06:46:20;;;;;;;;;;;;;;;4.73;100.00;102629.03;5219825;23;19937;-81
2023/12/15 06:49:17;;;;;;;;;;;;;;;4.82;100.00;102633.66;4997679;28;20389;-80
2023/12/15 07:03:16;;;;;;;;;;;;;;;4.78;100.00;102645.53;4995988;28;19933;-81
2023/12/15 07:05:54;;;;;;;;;;;;;;;4.74;100.00;102646.75;4999977;28;19922;-79
2023/12/15 07:08:22;;;;;;;;;;;;;;;4.65;100.00;102654.44;4997184;28;19944;-78
2023/12/15 07:10:54;;;;;;;;;;;;;;;4.58;100.00;102666.56;4999115;28;20020;-79
2023/12/15 07:13:32;;;;;;;;;;;;;;;4.57;100.00;102680.84;4994486;28;20345;-80
2023/12/15 07:15:57;;;;;;;;;;;;;;;4.59;100.00;102678.91;4996553;28;19926;-79
2023/12/15 07:18:32;;;;;;;;;;;;;;;4.69;100.00;102679.94;5000546;28;19930;-79
2023/12/15 07:21:10;;;;;;;;;;;;;;;4.70;100.00;102668.31;4996252;28;19945;-79
2023/12/15 07:23:44;;;;;;;;;;;;;;;4.90;100.00;102676.66;5017992;23;19926;-83
2023/12/15 07:26:14;;;;;;;;;;;;;;;4.89;100.00;102677.63;5003389;23;19925;-79
2023/12/15 07:28:45;;;;;;;;;;;;;;;4.88;100.00;102683.06;4998578;28;19921;-79
2023/12/15 07:31:13;;;;;;;;;;;;;;;4.70;100.00;102686.97;4992960;28;20378;-79
2023/12/15 07:33:44;;;;;;;;;;;;;;;4.63;100.00;102691.06;5001402;28;20004;-86
2023/12/15 07:36:12;;;;;;;;;;;;;;;4.60;100.00;102695.78;4994940;28;19957;-86
2023/12/15 07:38:38;;;;;;;;;;;;;;;4.64;100.00;102698.09;4977505;28;20012;-78
2023/12/15 07:41:10;;;;;;;;;;;;;;;4.72;100.00;102694.88;4993790;28;20016;-83
2023/12/15 07:43:36;;;;;;;;;;;;;;;4.68;100.00;102704.91;5003318;28;19998;-82
2023/12/15 07:46:07;;;;;;;;;;;;;;;4.66;100.00;102706.00;5000466;28;19918;-81
2023/12/15 07:48:45;;;;;;;;;;;;;;;4.66;100.00;102711.34;4986322;23;19926;-82
2023/12/15 07:54:13;;;;;;;;;;;;;;;5.09;100.00;102713.50;4984364;28;19941;-81
2023/12/15 07:56:38;;;;;;;;;;;;;;;5.07;100.00;102719.91;4989404;28;20305;-84
2023/12/15 07:59:03;;;;;;;;;;;;;;;5.12;100.00;102723.06;4991618;28;19979;-83
2023/12/15 08:01:29;;;;;;;;;;;;;;;4.99;100.00;102723.16;4989019;28;20453;-82
2023/12/15 08:03:54;;;;;;;;;;;;;;;4.93;100.00;102735.16;4989104;28;20294;-82
2023/12/15 08:06:19;;;;;;;;;;;;;;;4.98;100.00;102732.13;4992159;28;19929;-81
2023/12/15 08:08:45;;;;;;;;;;;;;;;4.96;100.00;102742.91;4992354;28;19922;-82
2023/12/15 08:11:10;;;;;;;;;;;;;;;5.04;100.00;102746.84;4991331;28;19925;-82
2023/12/15 08:13:36;;;;;;;;;;;;;;;5.09;100.00;102750.03;4986851;28;19922;-83
2023/12/15 08:16:03;;;;;;;;;;;;;;;5.17;100.00;102742.28;4993098;28;19922;-82
2023/12/15 08:18:28;;;;;;;;;;;;;;;5.15;100.00;102742.41;4974292;28;19926;-81
2023/12/15 08:20:53;;;;;;;;;;;;;;;5.15;100.00;102746.88;4991185;28;19928;-82
2023/12/15 08:23:21;;;;;;;;;;;;;;;5.15;100.00;102754.88;4990878;28;20004;-83
2023/12/15 08:28:53;;;;;;;;;;;;;;;;;;;;;
2023/12/15 08:31:19;;;;;;;;;;;;;;;5.27;100.00;102786.03;4911631;28;20401;-81
2023/12/15 08:37:19;;;;;;;;;;;;;;;5.35;100.00;102796.16;5000584;28;20478;-81
2023/12/15 08:40:12;;;;;;;;;;;;;;;5.44;100.00;102798.13;5000206;28;20349;-81
2023/12/15 08:50:53;;;;;;;;;;;;;;;5.55;100.00;102821.38;5006063;28;19926;-80
2023/12/15 08:53:25;;;;;;;;;;;;;;;5.60;100.00;102811.19;5001589;28;19943;-77
2023/12/15 08:56:14;;;;;;;;;;;;;;;5.53;100.00;102823.28;5004167;28;19926;-77
2023/12/15 08:58:40;;;;;;;;;;;;;;;5.57;100.00;102824.78;5001877;28;19922;-77
2023/12/15 09:01:34;;;;;;;;;;;;;;;5.64;100.00;102821.66;4991643;28;19932;-77
2023/12/15 09:04:12;;;;;;;;;;;;;;;5.61;100.00;102828.94;5004630;28;20242;-76
2023/12/15 09:09:40;;;;;;;;;;;;;;;5.60;100.00;102829.91;4996894;28;20437;-77
2023/12/15 09:12:21;;;;;;;;;;;;;;;5.64;100.00;102840.38;4995668;28;20001;-78
2023/12/15 09:14:47;;;;;;;;;;;;;;;5.66;100.00;102839.28;4994215;28;19936;-76
2023/12/15 09:20:14;;;;;;;;;;;;;;;5.75;100.00;102851.09;4995497;28;19932;-77
2023/12/15 09:25:42;;;;;;;;;;;;;;;5.76;100.00;102872.34;5648288;23;20076;-77
2023/12/15 09:28:10;;;;;;;;;;;;;;;5.83;100.00;102878.06;5007114;28;19949;-77
2023/12/15 09:30:38;;;;;;;;;;;;;;;5.89;100.00;102885.63;4997196;28;19921;-77
2023/12/15 09:33:04;;;;;;;;;;;;;;;5.91;100.00;102885.53;5004150;28;20008;-78
2023/12/15 09:35:29;;;;;;;;;;;;;;;5.99;100.00;102877.78;5002225;28;19933;-77
2023/12/15 09:37:54;;;;;;;;;;;;;;;6.06;100.00;102883.53;5004037;28;19933;-78
2023/12/15 09:40:25;;;;;;;;;;;;;;;6.04;100.00;102881.00;5003600;28;19925;-78
2023/12/15 09:42:52;;;;;;;;;;;;;;;6.05;100.00;102884.50;4985716;28;20036;-79
2023/12/15 09:45:20;;;;;;;;;;;;;;;6.21;100.00;102898.41;4991924;28;19922;-78
2023/12/15 09:47:46;;;;;;;;;;;;;;;6.15;100.00;102909.59;4981874;28;20301;-78
2023/12/15 09:50:11;;;;;;;;;;;;;;;6.17;100.00;102921.03;4992827;28;19925;-77
2023/12/15 09:52:37;;;;;;;;;;;;;;;6.22;100.00;102926.84;4992177;28;19925;-77
2023/12/15 09:55:03;;;;;;;;;;;;;;;6.25;100.00;102930.28;5002531;28;19964;-77
2023/12/15 09:57:29;;;;;;;;;;;;;;;6.27;100.00;102936.38;5005367;28;19972;-78
2023/12/15 09:59:54;;;;;;;;;;;;;;;6.31;100.00;102946.72;4976424;28;19969;-79
2023/12/15 10:02:19;;;;;;;;;;;;;;;6.29;100.00;102943.28;4995835;28;19936;-77
2023/12/15 10:04:48;;;;;;;;;;;;;;;6.26;100.00;102948.03;5021572;28;19952;-77
2023/12/15 10:07:13;;;;;;;;;;;;;;;6.31;100.00;102945.88;5002380;28;19914;-77
2023/12/15 10:09:39;;;;;;;;;;;;;;;6.31;100.00;102938.69;5006948;28;19933;-76
2023/12/15 10:12:07;;;;;;;;;;;;;;;6.35;100.00;102929.47;5003689;28;19918;-78
2023/12/15 10:14:36;;;;;;;;;;;;;;;6.58;100.00;102934.00;4998405;28;19917;-78
2023/12/15 10:19:36;;;;;;;;;;;;;;;6.49;100.00;102931.09;5048561;23;19933;-78
2023/12/15 10:22:05;;;;;;;;;;;;;;;6.46;100.00;102933.13;4990369;28;19922;-78
2023/12/15 10:24:30;;;;;;;;;;;;;;;6.46;100.00;102939.34;5000890;28;20318;-78
2023/12/15 10:26:56;;;;;;;;;;;;;;;6.50;100.00;102953.31;4977908;28;20029;-78
2023/12/15 10:29:21;;;;;;;;;;;;;;;6.50;100.00;102956.88;5002094;28;20337;-78
2023/12/15 10:31:50;;;;;;;;;;;;;;;6.46;100.00;102950.03;5003665;28;19925;-78
2023/12/15 10:34:15;;;;;;;;;;;;;;;6.51;100.00;102958.59;5017374;28;20378;-78
2023/12/15 10:36:44;;;;;;;;;;;;;;;6.51;100.00;102965.75;5019611;28;19929;-78
2023/12/15 10:39:10;;;;;;;;;;;;;;;6.55;100.00;102975.25;5015204;28;20297;-76
2023/12/15 10:41:35;;;;;;;;;;;;;;;6.53;100.00;102978.00;4995447;28;19922;-78
2023/12/15 10:44:01;;;;;;;;;;;;;;;6.73;100.00;102974.78;5005235;28;19926;-76
2023/12/15 10:46:26;;;;;;;;;;;;;;;6.65;100.00;102983.41;5001820;28;19932;-77
2023/12/15 10:48:52;;;;;;;;;;;;;;;6.59;100.00;102987.44;5008750;28;19929;-77
2023/12/15 10:51:17;;;;;;;;;;;;;;;6.61;100.00;103001.53;4982881;28;19926;-77
2023/12/15 10:53:44;;;;;;;;;;;;;;;6.58;100.00;102999.09;5003670;28;19936;-77
2023/12/15 10:56:09;;;;;;;;;;;;;;;6.61;100.00;102996.19;5067098;23;19933;-78
2023/12/15 10:58:34;;;;;;;;;;;;;;;6.60;100.00;102994.47;5011691;28;19939;-79
2023/12/15 11:00:59;;;;;;;;;;;;;;;6.67;100.00;102990.34;5012576;28;19925;-79
2023/12/15 11:03:25;;;;;;;;;;;;;;;6.68;100.00;102991.22;5013695;28;19932;-79
2023/12/15 11:05:51;;;;;;;;;;;;;;;6.66;100.00;102987.81;4991015;28;19922;-79
2023/12/15 11:08:16;;;;;;;;;;;;;;;6.73;100.00;102991.69;4974497;28;19995;-79
2023/12/15 11:10:41;;;;;;;;;;;;;;;6.76;100.00;102995.97;4996858;28;19922;-78
2023/12/15 11:13:25;;;;;;;;;;;;;;;6.72;100.00;102998.00;4999776;28;19929;-79
2023/12/15 11:15:50;;;;;;;;;;;;;;;6.73;100.00;102994.38;4992833;28;19922;-78
2023/12/15 11:18:16;;;;;;;;;;;;;;;6.74;100.00;102998.75;4993863;28;19922;-79
2023/12/15 11:20:42;;;;;;;;;;;;;;;6.86;100.00;103004.16;4991367;28;19932;-79
2023/12/15 11:23:09;;;;;;;;;;;;;;;6.90;100.00;103011.81;4992170;28;19922;-79
2023/12/15 11:25:35;;;;;;;;;;;;;;;6.80;100.00;103002.78;5002696;28;19961;-79
2023/12/15 11:28:09;;;;;;;;;;;;;;;6.87;100.00;103005.84;5005259;28;19975;-79
2023/12/15 11:30:40;;;;;;;;;;;;;;;7.01;100.00;103019.03;4996934;28;19973;-79
2023/12/15 11:33:20;;;;;;;;;;;;;;;6.92;100.00;103017.03;5008253;23;20354;-79
2023/12/15 11:35:52;;;;;;;;;;;;;;;6.95;100.00;103017.69;4993207;28;19929;-79
2023/12/15 11:38:19;;;;;;;;;;;;;;;7.00;100.00;103020.00;5171098;22;20003;-79
2023/12/15 11:40:45;;;;;;;;;;;;;;;6.97;100.00;103017.53;4975422;28;19953;-79
2023/12/15 11:46:13;;;;;;;;;;;;;;;7.15;100.00;103027.78;5007193;23;19926;-78
2023/12/15 11:49:19;;;;;;;;;;;;;;;7.12;100.00;103020.88;4990583;28;19925;-78
2023/12/15 11:51:48;;;;;;;;;;;;;;;7.20;100.00;103017.56;4991313;28;19925;-78
2023/12/15 11:54:13;;;;;;;;;;;;;;;7.15;100.00;103020.59;4992731;28;19934;-79
2023/12/15 11:59:40;;;;;;;;;;;;;;;7.12;100.00;103010.97;4938913;29;19927;-79
2023/12/15 12:02:05;;;;;;;;;;;;;;;7.19;100.00;103002.47;4971576;28;19981;-79
2023/12/15 12:07:46;;;;;;;;;;;;;;;;;;;;;
2023/12/15 12:16:51;;;;;;;;;;;;;;;7.61;100.00;102999.16;4949506;29;19954;-78
2023/12/15 12:19:25;;;;;;;;;;;;;;;7.63;100.00;103003.41;4954762;28;19968;-78
2023/12/15 12:22:15;;;;;;;;;;;;;;;7.52;100.00;103014.16;4977108;28;20308;-78
2023/12/15 12:24:56;;;;;;;;;;;;;;;7.48;100.00;103007.34;4984343;28;19922;-78
2023/12/15 12:27:48;;;;;;;;;;;;;;;7.64;100.00;103005.13;4988800;28;20096;-78
2023/12/15 12:30:17;;;;;;;;;;;;;;;7.61;100.00;103000.00;4975950;28;19961;-78
2023/12/15 12:32:43;;;;;;;;;;;;;;;7.49;100.00;103001.00;4977671;28;19964;-78
2023/12/15 12:38:20;;;;;;;;;;;;;;;7.81;100.00;102994.84;4997509;23;19937;-79
2023/12/15 12:40:55;;;;;;;;;;;;;;;7.96;100.00;102998.09;5009564;28;20137;-78
2023/12/15 12:43:38;;;;;;;;;;;;;;;8.37;100.00;103001.00;4986354;28;19944;-79
2023/12/15 12:49:33;;;;;;;;;;;;;;;9.33;100.00;103009.81;4974662;28;19945;-79
2023/12/15 12:55:14;;;;;;;;;;;;;;;10.82;95.88;103007.16;4996638;22;19936;-79
2023/12/15 13:01:17;;;;;;;;;;;;;;;9.46;100.00;103009.56;5002314;28;19951;-80
2023/12/15 13:04:19;;;;;;;;;;;;;;;8.77;100.00;103019.97;4999518;28;19929;-81
2023/12/15 13:09:47;;;;;;;;;;;;;;;8.37;100.00;103017.09;5008730;28;20029;-80
2023/12/15 13:12:13;;;;;;;;;;;;;;;8.22;100.00;103017.41;5001957;28;19996;-79
2023/12/15 13:14:45;;;;;;;;;;;;;;;8.29;100.00;103026.66;5006775;28;20028;-82
2023/12/15 13:17:22;;;;;;;;;;;;;;;8.04;100.00;103034.06;5002684;28;19922;-82
2023/12/15 13:19:48;;;;;;;;;;;;;;;7.94;100.00;103034.94;4999652;28;19922;-82
2023/12/15 13:22:13;;;;;;;;;;;;;;;7.81;100.00;103048.47;4992576;28;19928;-81
2023/12/15 13:25:10;;;;;;;;;;;;;;;7.71;100.00;103043.88;4997388;28;19928;-80
2023/12/15 13:37:02;;;;;;;;;;;;;;;7.84;100.00;103037.50;5245280;23;19936;-82
2023/12/15 13:39:32;;;;;;;;;;;;;;;7.73;100.00;103044.59;4996290;28;20565;-82
2023/12/15 13:42:16;;;;;;;;;;;;;;;7.64;100.00;103042.66;4982055;28;20349;-81
2023/12/15 13:59:19;;;;;;;;;;;;;;;7.45;100.00;103032.56;5005100;28;19979;-81
2023/12/15 14:01:59;;;;;;;;;;;;;;;7.38;100.00;103036.69;4993602;28;19956;-81
2023/12/15 14:04:25;;;;;;;;;;;;;;;7.36;100.00;103041.31;4999701;28;20183;-81
2023/12/15 14:06:58;;;;;;;;;;;;;;;7.30;100.00;103057.91;5012037;28;20501;-81
2023/12/15 14:09:29;;;;;;;;;;;;;;;7.38;100.00;103053.63;4982950;28;19926;-82
2023/12/15 14:15:18;;;;;;;;;;;;;;;7.20;100.00;103055.09;4999362;28;19980;-81
2023/12/15 14:17:43;;;;;;;;;;;;;;;7.13;100.00;103055.56;5009880;28;20012;-81
2023/12/15 14:20:15;;;;;;;;;;;;;;;7.10;100.00;103044.22;5005699;28;20007;-82
2023/12/15 14:22:58;;;;;;;;;;;;;;;7.13;100.00;103050.19;5011837;28;19939;-81
2023/12/15 14:25:24;;;;;;;;;;;;;;;7.05;100.00;103055.31;5010100;28;19936;-81
2023/12/15 14:28:14;;;;;;;;;;;;;;;7.00;100.00;103064.66;4985422;28;19924;-81
2023/12/15 14:30:40;;;;;;;;;;;;;;;6.97;100.00;103069.25;5005845;28;19921;-81
2023/12/15 14:33:24;;;;;;;;;;;;;;;6.92;100.00;103084.84;5014432;28;20027;-81
2023/12/15 14:35:50;;;;;;;;;;;;;;;6.90;100.00;103096.63;4992467;28;19922;-82
2023/12/15 14:38:44;;;;;;;;;;;;;;;6.91;100.00;103119.75;5012792;28;19921;-82
2023/12/15 14:41:12;;;;;;;;;;;;;;;6.91;100.00;103115.28;5002421;23;19930;-82
2023/12/15 14:43:43;;;;;;;;;;;;;;;6.93;100.00;103112.47;4988144;28;20006;-82
2023/12/15 14:46:08;;;;;;;;;;;;;;;6.94;100.00;103120.41;4979720;28;19976;-82
2023/12/15 14:48:35;;;;;;;;;;;;;;;6.93;100.00;103112.47;4988084;28;20385;-82
2023/12/15 14:51:01;;;;;;;;;;;;;;;6.98;100.00;103121.00;4982167;28;19996;-82
2023/12/15 14:53:26;;;;;;;;;;;;;;;6.91;100.00;103119.75;4988210;28;20379;-81
2023/12/15 14:55:54;;;;;;;;;;;;;;;6.95;100.00;103127.47;4978828;28;20020;-81
2023/12/15 14:58:22;;;;;;;;;;;;;;;6.88;100.00;103125.38;4981556;28;19925;-81
2023/12/15 15:00:47;;;;;;;;;;;;;;;6.87;100.00;103129.03;5177141;22;20046;-82
2023/12/15 15:03:13;;;;;;;;;;;;;;;6.80;100.00;103125.91;4990892;28;20005;-82
2023/12/15 15:05:38;;;;;;;;;;;;;;;6.77;100.00;103127.03;4990918;28;19933;-82
2023/12/15 15:08:03;;;;;;;;;;;;;;;6.76;100.00;103117.28;4996989;28;19922;-83
2023/12/15 15:10:31;;;;;;;;;;;;;;;6.81;100.00;103122.28;4997689;28;19921;-85
2023/12/15 15:13:18;;;;;;;;;;;;;;;6.80;100.00;103124.13;5008660;28;20380;-82
2023/12/15 15:15:43;;;;;;;;;;;;;;;6.82;100.00;103129.34;4933380;28;19926;-82
2023/12/15 15:18:14;;;;;;;;;;;;;;;6.73;100.00;103138.91;5107652;23;20130;-83
2023/12/15 15:21:16;;;;;;;;;;;;;;;6.64;100.00;103135.09;4964442;28;20386;-83
2023/12/15 15:24:22;;;;;;;;;;;;;;;6.63;100.00;103129.88;4996967;28;20008;-84
2023/12/15 15:26:47;;;;;;;;;;;;;;;6.64;100.00;103128.91;5005533;28;20309;-84
2023/12/15 15:29:12;;;;;;;;;;;;;;;6.61;100.00;103123.78;5001358;28;19922;-84
2023/12/15 15:31:45;;;;;;;;;;;;;;;6.55;100.00;103129.59;5001830;28;20377;-84
2023/12/15 15:34:18;;;;;;;;;;;;;;;6.61;100.00;103118.44;5010026;28;19926;-83
2023/12/15 15:42:43;;;;;;;;;;;;;;;6.98;100.00;103123.69;5006800;28;19921;-81
2023/12/15 15:47:44;;;;;;;;;;;;;;;7.07;100.00;103141.72;5054011;23;19926;-83
2023/12/15 15:50:30;;;;;;;;;;;;;;;7.06;100.00;103149.88;5003343;28;20188;-82
2023/12/15 15:52:55;;;;;;;;;;;;;;;7.06;100.00;103156.09;4999579;28;20254;-82
2023/12/15 15:55:42;;;;;;;;;;;;;;;6.96;100.00;103180.06;4993090;28;19930;-83
2023/12/15 15:58:16;;;;;;;;;;;;;;;7.02;100.00;103157.31;5002627;28;19926;-84
2023/12/15 16:00:41;;;;;;;;;;;;;;;7.06;100.00;103155.25;4995012;28;19953;-81
2023/12/15 16:06:42;;;;;;;;;;;;;;;6.96;100.00;103195.25;5006423;28;19931;-83
2023/12/15 16:12:18;;;;;;;;;;;;;;;6.84;100.00;103210.41;4999666;28;20397;-86
2023/12/15 16:17:18;;;;;;;;;;;;;;;6.84;100.00;103178.28;5217417;23;20338;-84
2023/12/15 16:26:20;;;;;;;;;;;;;;;6.58;100.00;103177.53;4980696;28;20006;-84
2023/12/15 16:32:20;;;;;;;;;;;;;;;6.50;100.00;103159.38;4986554;28;19953;-85
2023/12/15 16:37:16;;;;;;;;;;;;;;;6.38;100.00;103177.16;4987085;23;19926;-85
2023/12/15 16:40:25;;;;;;;;;;;;;;;;;;;;;
2023/12/15 16:51:35;;;;;;;;;;;;;;;6.32;100.00;103191.84;5344632;23;19931;-83
2023/12/15 16:54:32;;;;;;;;;;;;;;;6.29;100.00;103205.44;5012675;28;19925;-84
2023/12/15 16:57:22;;;;;;;;;;;;;;;6.26;100.00;103210.16;5003128;28;19917;-83
2023/12/15 17:00:24;;;;;;;;;;;;;;;6.19;100.00;103209.75;4998448;28;20285;-81
2023/12/15 17:06:23;;;;;;;;;;;;;;;6.21;100.00;103224.72;5013795;28;20001;-83
2023/12/15 17:15:14;;;;;;;;;;;;;;;6.48;100.00;103194.28;4991925;28;20023;-83
2023/12/15 17:18:14;;;;;;;;;;;;;;;6.30;100.00;103228.56;4994030;28;19926;-83
2023/12/15 17:20:39;;;;;;;;;;;;;;;6.19;100.00;103225.78;4977749;28;19917;-77
2023/12/15 17:23:23;;;;;;;;;;;;;;;6.09;100.00;103214.91;4999625;28;19945;-81
2023/12/15 17:25:51;;;;;;;;;;;;;;;6.17;100.00;103225.03;4994346;28;19944;-81
2023/12/15 17:28:37;;;;;;;;;;;;;;;6.35;100.00;103230.91;4994531;28;19944;-81
2023/12/15 17:31:11;;;;;;;;;;;;;;;6.23;100.00;103221.94;5009692;28;20349;-81
2023/12/15 17:33:36;;;;;;;;;;;;;;;6.28;100.00;103224.28;4995228;28;19929;-81
2023/12/15 17:36:17;;;;;;;;;;;;;;;6.32;100.00;103226.63;5009680;28;19925;-81
2023/12/15 17:38:42;;;;;;;;;;;;;;;6.31;100.00;103230.25;5006996;28;19928;-80
2023/12/15 17:41:19;;;;;;;;;;;;;;;6.25;100.00;103229.84;4995358;28;20056;-82
2023/12/15 17:43:57;;;;;;;;;;;;;;;6.24;100.00;103233.50;4995471;28;19944;-81
2023/12/15 17:46:28;;;;;;;;;;;;;;;6.11;100.00;103223.66;4995675;28;20004;-81
2023/12/15 17:48:54;;;;;;;;;;;;;;;6.16;100.00;103221.53;4992115;28;20013;-79
2023/12/15 17:51:19;;;;;;;;;;;;;;;6.26;100.00;103213.72;4994626;28;20000;-79
2023/12/15 17:53:51;;;;;;;;;;;;;;;6.41;99.82;103202.88;5001843;28;19921;-81
2023/12/15 17:56:31;;;;;;;;;;;;;;;6.37;100.00;103218.25;5013137;28;19945;-82
2023/12/15 17:58:56;;;;;;;;;;;;;;;6.34;100.00;103216.69;4999972;28;20374;-82
2023/12/15 18:01:36;;;;;;;;;;;;;;;6.14;100.00;103226.13;4994699;28;19933;-82
2023/12/15 18:04:17;;;;;;;;;;;;;;;6.04;100.00;103227.72;4991653;28;20351;-82
2023/12/15 18:07:08;;;;;;;;;;;;;;;6.01;100.00;103231.47;4994427;28;20065;-82
2023/12/15 18:09:33;;;;;;;;;;;;;;;5.99;100.00;103229.84;4997056;28;19932;-82